sensor_id;sensor_type;location;lat;lon;timestamp;P1;durP1;ratioP1;P2;durP2;ratioP2
84644;SDS011;74874;48.072;11.688;2023-12-20T00:01:19;4.82;;;1.83;;
84644;SDS011;74874;48.072;11.688;2023-12-20T00:03:44;3.72;;;1.88;;
84644;SDS011;74874;48.072;11.688;2023-12-20T00:06:10;3.13;;;1.40;;
84644;SDS011;74874;48.072;11.688;2023-12-20T00:08:35;4.28;;;1.85;;
84644;SDS011;74874;48.072;11.688;2023-12-20T00:11:01;3.20;;;1.58;;
84644;SDS011;74874;48.072;11.688;2023-12-20T00:13:26;3.50;;;1.73;;
84644;SDS011;74874;48.072;11.688;2023-12-20T00:15:51;3.63;;;1.75;;
84644;SDS011;74874;48.072;11.688;2023-12-20T00:18:17;2.80;;;1.30;;
84644;SDS011;74874;48.072;11.688;2023-12-20T00:20:42;4.35;;;1.90;;
84644;SDS011;74874;48.072;11.688;2023-12-20T00:23:07;4.05;;;1.65;;
84644;SDS011;74874;48.072;11.688;2023-12-20T00:25:33;2.70;;;1.50;;
84644;SDS011;74874;48.072;11.688;2023-12-20T00:27:59;3.47;;;1.50;;
84644;SDS011;74874;48.072;11.688;2023-12-20T00:30:25;3.53;;;1.60;;
84644;SDS011;74874;48.072;11.688;2023-12-20T00:32:50;3.55;;;1.65;;
84644;SDS011;74874;48.072;11.688;2023-12-20T00:35:16;3.30;;;1.70;;
84644;SDS011;74874;48.072;11.688;2023-12-20T00:37:41;3.63;;;1.65;;
84644;SDS011;74874;48.072;11.688;2023-12-20T00:40:08;3.22;;;1.48;;
84644;SDS011;74874;48.072;11.688;2023-12-20T00:42:33;3.97;;;1.15;;
84644;SDS011;74874;48.072;11.688;2023-12-20T00:44:59;2.67;;;1.23;;
84644;SDS011;74874;48.072;11.688;2023-12-20T00:47:25;3.47;;;1.30;;
84644;SDS011;74874;48.072;11.688;2023-12-20T00:52:15;4.07;;;1.60;;
84644;SDS011;74874;48.072;11.688;2023-12-20T00:54:42;4.45;;;1.48;;
84644;SDS011;74874;48.072;11.688;2023-12-20T00:57:08;3.25;;;1.58;;
84644;SDS011;74874;48.072;11.688;2023-12-20T00:59:33;3.42;;;1.20;;
84644;SDS011;74874;48.072;11.688;2023-12-20T01:01:59;3.25;;;1.50;;
84644;SDS011;74874;48.072;11.688;2023-12-20T01:04:24;3.30;;;1.42;;
84644;SDS011;74874;48.072;11.688;2023-12-20T01:06:49;3.65;;;1.83;;
84644;SDS011;74874;48.072;11.688;2023-12-20T01:09:15;3.30;;;1.50;;
84644;SDS011;74874;48.072;11.688;2023-12-20T01:11:40;2.95;;;1.35;;
84644;SDS011;74874;48.072;11.688;2023-12-20T01:14:05;2.83;;;1.42;;
84644;SDS011;74874;48.072;11.688;2023-12-20T01:16:31;3.92;;;1.67;;
84644;SDS011;74874;48.072;11.688;2023-12-20T01:18:56;3.58;;;1.40;;
84644;SDS011;74874;48.072;11.688;2023-12-20T01:21:21;3.67;;;1.73;;
84644;SDS011;74874;48.072;11.688;2023-12-20T01:23:47;3.85;;;2.00;;
84644;SDS011;74874;48.072;11.688;2023-12-20T01:26:12;4.00;;;1.90;;
84644;SDS011;74874;48.072;11.688;2023-12-20T01:28:37;3.80;;;1.52;;
84644;SDS011;74874;48.072;11.688;2023-12-20T01:31:03;3.97;;;1.67;;
84644;SDS011;74874;48.072;11.688;2023-12-20T01:33:28;3.22;;;1.50;;
84644;SDS011;74874;48.072;11.688;2023-12-20T01:35:54;4.30;;;1.40;;
84644;SDS011;74874;48.072;11.688;2023-12-20T01:38:19;3.45;;;1.85;;
84644;SDS011;74874;48.072;11.688;2023-12-20T01:40:45;4.88;;;1.98;;
84644;SDS011;74874;48.072;11.688;2023-12-20T01:43:10;4.35;;;1.60;;
84644;SDS011;74874;48.072;11.688;2023-12-20T01:45:37;3.88;;;1.60;;
84644;SDS011;74874;48.072;11.688;2023-12-20T01:48:03;3.50;;;1.85;;
84644;SDS011;74874;48.072;11.688;2023-12-20T01:50:29;4.80;;;1.70;;
84644;SDS011;74874;48.072;11.688;2023-12-20T01:53:01;3.38;;;1.40;;
84644;SDS011;74874;48.072;11.688;2023-12-20T01:55:27;3.60;;;2.00;;
84644;SDS011;74874;48.072;11.688;2023-12-20T01:57:53;3.50;;;1.67;;
84644;SDS011;74874;48.072;11.688;2023-12-20T02:00:18;2.95;;;1.60;;
84644;SDS011;74874;48.072;11.688;2023-12-20T02:02:48;6.05;;;1.92;;
84644;SDS011;74874;48.072;11.688;2023-12-20T02:05:14;3.20;;;1.40;;
84644;SDS011;74874;48.072;11.688;2023-12-20T02:07:40;3.15;;;1.60;;
84644;SDS011;74874;48.072;11.688;2023-12-20T02:10:06;3.60;;;1.60;;
84644;SDS011;74874;48.072;11.688;2023-12-20T02:12:31;3.85;;;1.60;;
84644;SDS011;74874;48.072;11.688;2023-12-20T02:14:57;4.00;;;1.58;;
84644;SDS011;74874;48.072;11.688;2023-12-20T02:17:22;3.08;;;1.50;;
84644;SDS011;74874;48.072;11.688;2023-12-20T02:19:48;3.88;;;1.65;;
84644;SDS011;74874;48.072;11.688;2023-12-20T02:22:14;2.90;;;1.38;;
84644;SDS011;74874;48.072;11.688;2023-12-20T02:24:40;3.65;;;1.50;;
84644;SDS011;74874;48.072;11.688;2023-12-20T02:27:05;2.30;;;1.10;;
84644;SDS011;74874;48.072;11.688;2023-12-20T02:29:32;2.58;;;1.10;;
84644;SDS011;74874;48.072;11.688;2023-12-20T02:31:58;2.90;;;0.95;;
84644;SDS011;74874;48.072;11.688;2023-12-20T02:34:23;5.75;;;1.02;;
84644;SDS011;74874;48.072;11.688;2023-12-20T02:36:48;3.20;;;1.40;;
84644;SDS011;74874;48.072;11.688;2023-12-20T02:39:14;3.72;;;1.23;;
84644;SDS011;74874;48.072;11.688;2023-12-20T02:41:39;2.45;;;1.20;;
84644;SDS011;74874;48.072;11.688;2023-12-20T02:44:05;2.65;;;0.98;;
84644;SDS011;74874;48.072;11.688;2023-12-20T02:46:30;2.95;;;1.02;;
84644;SDS011;74874;48.072;11.688;2023-12-20T02:48:55;2.60;;;1.20;;
84644;SDS011;74874;48.072;11.688;2023-12-20T02:51:20;1.75;;;0.75;;
84644;SDS011;74874;48.072;11.688;2023-12-20T02:53:46;2.22;;;0.90;;
84644;SDS011;74874;48.072;11.688;2023-12-20T02:56:11;2.20;;;0.70;;
84644;SDS011;74874;48.072;11.688;2023-12-20T02:58:37;4.53;;;1.10;;
84644;SDS011;74874;48.072;11.688;2023-12-20T03:01:02;2.65;;;1.02;;
84644;SDS011;74874;48.072;11.688;2023-12-20T03:03:27;2.85;;;1.30;;
84644;SDS011;74874;48.072;11.688;2023-12-20T03:05:53;3.22;;;1.63;;
84644;SDS011;74874;48.072;11.688;2023-12-20T03:08:18;3.92;;;1.70;;
84644;SDS011;74874;48.072;11.688;2023-12-20T03:10:43;3.00;;;1.20;;
84644;SDS011;74874;48.072;11.688;2023-12-20T03:13:09;3.00;;;1.20;;
84644;SDS011;74874;48.072;11.688;2023-12-20T03:15:34;4.22;;;1.80;;
84644;SDS011;74874;48.072;11.688;2023-12-20T03:18:00;4.93;;;1.90;;
84644;SDS011;74874;48.072;11.688;2023-12-20T03:20:25;4.43;;;1.83;;
84644;SDS011;74874;48.072;11.688;2023-12-20T03:22:53;3.10;;;1.60;;
84644;SDS011;74874;48.072;11.688;2023-12-20T03:25:18;3.60;;;1.77;;
84644;SDS011;74874;48.072;11.688;2023-12-20T03:27:44;4.15;;;1.80;;
84644;SDS011;74874;48.072;11.688;2023-12-20T03:30:09;3.97;;;1.58;;
84644;SDS011;74874;48.072;11.688;2023-12-20T03:32:35;6.53;;;1.75;;
84644;SDS011;74874;48.072;11.688;2023-12-20T03:35:00;3.78;;;2.25;;
84644;SDS011;74874;48.072;11.688;2023-12-20T03:37:25;5.25;;;2.00;;
84644;SDS011;74874;48.072;11.688;2023-12-20T03:39:51;3.60;;;1.90;;
84644;SDS011;74874;48.072;11.688;2023-12-20T03:42:16;2.90;;;1.58;;
84644;SDS011;74874;48.072;11.688;2023-12-20T03:44:41;4.25;;;2.05;;
84644;SDS011;74874;48.072;11.688;2023-12-20T03:47:07;3.30;;;1.58;;
84644;SDS011;74874;48.072;11.688;2023-12-20T03:49:32;4.65;;;1.92;;
84644;SDS011;74874;48.072;11.688;2023-12-20T03:51:58;5.43;;;2.13;;
84644;SDS011;74874;48.072;11.688;2023-12-20T03:54:23;3.35;;;1.60;;
84644;SDS011;74874;48.072;11.688;2023-12-20T03:56:49;3.40;;;1.98;;
84644;SDS011;74874;48.072;11.688;2023-12-20T03:59:15;4.78;;;1.45;;
84644;SDS011;74874;48.072;11.688;2023-12-20T04:01:44;5.38;;;2.22;;
84644;SDS011;74874;48.072;11.688;2023-12-20T04:04:12;4.05;;;1.80;;
84644;SDS011;74874;48.072;11.688;2023-12-20T04:06:38;3.40;;;1.60;;
84644;SDS011;74874;48.072;11.688;2023-12-20T04:09:03;4.90;;;1.67;;
84644;SDS011;74874;48.072;11.688;2023-12-20T04:13:54;1.90;;;1.00;;
84644;SDS011;74874;48.072;11.688;2023-12-20T04:16:19;0.98;;;0.40;;
84644;SDS011;74874;48.072;11.688;2023-12-20T04:18:44;1.30;;;0.50;;
84644;SDS011;74874;48.072;11.688;2023-12-20T04:21:10;1.25;;;0.50;;
84644;SDS011;74874;48.072;11.688;2023-12-20T04:23:35;1.20;;;0.50;;
84644;SDS011;74874;48.072;11.688;2023-12-20T04:26:00;0.85;;;0.35;;
84644;SDS011;74874;48.072;11.688;2023-12-20T04:28:26;1.15;;;0.38;;
84644;SDS011;74874;48.072;11.688;2023-12-20T04:30:51;1.50;;;0.52;;
84644;SDS011;74874;48.072;11.688;2023-12-20T04:33:16;1.10;;;0.30;;
84644;SDS011;74874;48.072;11.688;2023-12-20T04:35:42;0.93;;;0.40;;
84644;SDS011;74874;48.072;11.688;2023-12-20T04:38:08;2.20;;;0.70;;
84644;SDS011;74874;48.072;11.688;2023-12-20T04:40:34;1.00;;;0.40;;
84644;SDS011;74874;48.072;11.688;2023-12-20T04:42:59;1.75;;;0.65;;
84644;SDS011;74874;48.072;11.688;2023-12-20T04:45:25;2.08;;;0.77;;
84644;SDS011;74874;48.072;11.688;2023-12-20T04:47:50;1.65;;;0.60;;
84644;SDS011;74874;48.072;11.688;2023-12-20T04:52:41;1.75;;;0.80;;
84644;SDS011;74874;48.072;11.688;2023-12-20T04:55:07;1.80;;;0.70;;
84644;SDS011;74874;48.072;11.688;2023-12-20T04:57:33;1.60;;;0.70;;
84644;SDS011;74874;48.072;11.688;2023-12-20T04:59:59;1.70;;;0.70;;
84644;SDS011;74874;48.072;11.688;2023-12-20T05:02:24;1.80;;;0.73;;
84644;SDS011;74874;48.072;11.688;2023-12-20T05:04:49;1.65;;;0.65;;
84644;SDS011;74874;48.072;11.688;2023-12-20T05:07:15;2.70;;;1.00;;
84644;SDS011;74874;48.072;11.688;2023-12-20T05:09:40;2.00;;;0.68;;
84644;SDS011;74874;48.072;11.688;2023-12-20T05:12:06;1.83;;;0.70;;
84644;SDS011;74874;48.072;11.688;2023-12-20T05:14:32;1.98;;;0.82;;
84644;SDS011;74874;48.072;11.688;2023-12-20T05:16:57;1.83;;;0.80;;
84644;SDS011;74874;48.072;11.688;2023-12-20T05:19:23;2.38;;;1.02;;
84644;SDS011;74874;48.072;11.688;2023-12-20T05:21:49;2.42;;;0.95;;
84644;SDS011;74874;48.072;11.688;2023-12-20T05:24:14;2.55;;;1.10;;
84644;SDS011;74874;48.072;11.688;2023-12-20T05:26:39;1.88;;;0.98;;
84644;SDS011;74874;48.072;11.688;2023-12-20T05:29:05;2.13;;;0.90;;
84644;SDS011;74874;48.072;11.688;2023-12-20T05:31:31;2.60;;;0.90;;
84644;SDS011;74874;48.072;11.688;2023-12-20T05:33:56;2.33;;;0.98;;
84644;SDS011;74874;48.072;11.688;2023-12-20T05:36:21;3.97;;;0.95;;
84644;SDS011;74874;48.072;11.688;2023-12-20T05:38:47;3.28;;;0.90;;
84644;SDS011;74874;48.072;11.688;2023-12-20T05:41:12;1.80;;;0.80;;
84644;SDS011;74874;48.072;11.688;2023-12-20T05:43:38;2.10;;;0.85;;
84644;SDS011;74874;48.072;11.688;2023-12-20T05:46:03;2.60;;;1.20;;
84644;SDS011;74874;48.072;11.688;2023-12-20T05:48:29;1.70;;;0.80;;
84644;SDS011;74874;48.072;11.688;2023-12-20T05:50:54;2.75;;;1.08;;
84644;SDS011;74874;48.072;11.688;2023-12-20T05:53:19;3.33;;;1.08;;
84644;SDS011;74874;48.072;11.688;2023-12-20T05:55:45;2.67;;;1.00;;
84644;SDS011;74874;48.072;11.688;2023-12-20T05:58:10;3.15;;;1.63;;
84644;SDS011;74874;48.072;11.688;2023-12-20T06:00:35;2.08;;;1.00;;
84644;SDS011;74874;48.072;11.688;2023-12-20T06:03:01;2.20;;;1.02;;
84644;SDS011;74874;48.072;11.688;2023-12-20T06:05:29;4.68;;;1.25;;
84644;SDS011;74874;48.072;11.688;2023-12-20T06:07:55;2.38;;;1.00;;
84644;SDS011;74874;48.072;11.688;2023-12-20T06:10:22;3.65;;;1.10;;
84644;SDS011;74874;48.072;11.688;2023-12-20T06:12:47;3.67;;;1.35;;
84644;SDS011;74874;48.072;11.688;2023-12-20T06:15:15;3.10;;;1.50;;
84644;SDS011;74874;48.072;11.688;2023-12-20T06:17:40;2.50;;;1.20;;
84644;SDS011;74874;48.072;11.688;2023-12-20T06:20:06;2.85;;;1.40;;
84644;SDS011;74874;48.072;11.688;2023-12-20T06:22:33;2.22;;;1.20;;
84644;SDS011;74874;48.072;11.688;2023-12-20T06:24:59;2.33;;;1.20;;
84644;SDS011;74874;48.072;11.688;2023-12-20T06:27:24;2.47;;;1.38;;
84644;SDS011;74874;48.072;11.688;2023-12-20T06:29:49;1.95;;;0.85;;
84644;SDS011;74874;48.072;11.688;2023-12-20T06:32:15;5.32;;;1.75;;
84644;SDS011;74874;48.072;11.688;2023-12-20T06:34:40;2.85;;;1.15;;
84644;SDS011;74874;48.072;11.688;2023-12-20T06:37:05;2.70;;;1.27;;
84644;SDS011;74874;48.072;11.688;2023-12-20T06:39:31;2.63;;;1.20;;
84644;SDS011;74874;48.072;11.688;2023-12-20T06:41:56;4.47;;;1.20;;
84644;SDS011;74874;48.072;11.688;2023-12-20T06:44:21;3.28;;;1.48;;
84644;SDS011;74874;48.072;11.688;2023-12-20T06:46:47;2.53;;;1.00;;
84644;SDS011;74874;48.072;11.688;2023-12-20T06:49:12;2.35;;;0.90;;
84644;SDS011;74874;48.072;11.688;2023-12-20T06:51:38;2.15;;;1.05;;
84644;SDS011;74874;48.072;11.688;2023-12-20T06:54:03;1.83;;;0.63;;
84644;SDS011;74874;48.072;11.688;2023-12-20T06:56:28;2.63;;;1.10;;
84644;SDS011;74874;48.072;11.688;2023-12-20T06:58:54;2.90;;;0.70;;
84644;SDS011;74874;48.072;11.688;2023-12-20T07:01:19;2.38;;;0.80;;
84644;SDS011;74874;48.072;11.688;2023-12-20T07:03:44;3.40;;;0.50;;
84644;SDS011;74874;48.072;11.688;2023-12-20T07:06:10;2.03;;;0.80;;
84644;SDS011;74874;48.072;11.688;2023-12-20T07:08:35;1.63;;;0.60;;
84644;SDS011;74874;48.072;11.688;2023-12-20T07:11:01;3.40;;;0.95;;
84644;SDS011;74874;48.072;11.688;2023-12-20T07:13:26;2.78;;;0.85;;
84644;SDS011;74874;48.072;11.688;2023-12-20T07:15:51;1.73;;;0.70;;
84644;SDS011;74874;48.072;11.688;2023-12-20T07:18:17;1.80;;;0.82;;
84644;SDS011;74874;48.072;11.688;2023-12-20T07:20:42;2.25;;;0.95;;
84644;SDS011;74874;48.072;11.688;2023-12-20T07:23:08;1.55;;;0.88;;
84644;SDS011;74874;48.072;11.688;2023-12-20T07:25:33;1.38;;;0.50;;
84644;SDS011;74874;48.072;11.688;2023-12-20T07:27:59;1.38;;;0.63;;
84644;SDS011;74874;48.072;11.688;2023-12-20T07:30:24;2.42;;;1.00;;
84644;SDS011;74874;48.072;11.688;2023-12-20T07:32:49;1.85;;;0.60;;
84644;SDS011;74874;48.072;11.688;2023-12-20T07:35:15;1.25;;;0.50;;
84644;SDS011;74874;48.072;11.688;2023-12-20T07:37:41;1.90;;;0.57;;
84644;SDS011;74874;48.072;11.688;2023-12-20T07:40:06;2.50;;;0.95;;
84644;SDS011;74874;48.072;11.688;2023-12-20T07:42:32;1.85;;;0.60;;
84644;SDS011;74874;48.072;11.688;2023-12-20T07:44:58;2.75;;;1.15;;
84644;SDS011;74874;48.072;11.688;2023-12-20T07:47:23;1.70;;;0.73;;
84644;SDS011;74874;48.072;11.688;2023-12-20T07:49:50;3.45;;;0.90;;
84644;SDS011;74874;48.072;11.688;2023-12-20T07:52:17;1.98;;;0.60;;
84644;SDS011;74874;48.072;11.688;2023-12-20T07:54:43;1.83;;;0.80;;
84644;SDS011;74874;48.072;11.688;2023-12-20T07:57:09;2.05;;;0.70;;
84644;SDS011;74874;48.072;11.688;2023-12-20T07:59:35;1.45;;;0.60;;
84644;SDS011;74874;48.072;11.688;2023-12-20T08:02:01;1.90;;;0.68;;
84644;SDS011;74874;48.072;11.688;2023-12-20T08:04:26;2.47;;;0.88;;
84644;SDS011;74874;48.072;11.688;2023-12-20T08:06:52;5.13;;;0.60;;
84644;SDS011;74874;48.072;11.688;2023-12-20T08:09:17;2.38;;;0.95;;
84644;SDS011;74874;48.072;11.688;2023-12-20T08:11:46;1.70;;;0.77;;
84644;SDS011;74874;48.072;11.688;2023-12-20T08:14:12;2.08;;;0.93;;
84644;SDS011;74874;48.072;11.688;2023-12-20T08:16:38;2.13;;;0.82;;
84644;SDS011;74874;48.072;11.688;2023-12-20T08:19:03;2.58;;;0.85;;
84644;SDS011;74874;48.072;11.688;2023-12-20T08:21:29;2.22;;;0.70;;
84644;SDS011;74874;48.072;11.688;2023-12-20T08:23:54;2.47;;;0.82;;
84644;SDS011;74874;48.072;11.688;2023-12-20T08:26:20;2.72;;;0.90;;
84644;SDS011;74874;48.072;11.688;2023-12-20T08:28:49;2.75;;;0.80;;
84644;SDS011;74874;48.072;11.688;2023-12-20T08:31:15;2.45;;;0.70;;
84644;SDS011;74874;48.072;11.688;2023-12-20T08:33:41;2.47;;;0.80;;
84644;SDS011;74874;48.072;11.688;2023-12-20T08:36:08;2.35;;;0.90;;
84644;SDS011;74874;48.072;11.688;2023-12-20T08:38:34;2.45;;;0.80;;
84644;SDS011;74874;48.072;11.688;2023-12-20T08:40:59;1.55;;;0.60;;
84644;SDS011;74874;48.072;11.688;2023-12-20T08:43:24;1.40;;;0.60;;
84644;SDS011;74874;48.072;11.688;2023-12-20T08:45:50;1.13;;;0.47;;
84644;SDS011;74874;48.072;11.688;2023-12-20T08:48:15;2.55;;;0.55;;
84644;SDS011;74874;48.072;11.688;2023-12-20T08:50:40;1.60;;;0.75;;
84644;SDS011;74874;48.072;11.688;2023-12-20T08:53:06;1.58;;;0.60;;
84644;SDS011;74874;48.072;11.688;2023-12-20T08:55:31;2.30;;;0.70;;
84644;SDS011;74874;48.072;11.688;2023-12-20T08:57:57;1.40;;;0.52;;
84644;SDS011;74874;48.072;11.688;2023-12-20T09:00:22;1.27;;;0.50;;
84644;SDS011;74874;48.072;11.688;2023-12-20T09:02:50;1.75;;;0.52;;
84644;SDS011;74874;48.072;11.688;2023-12-20T09:05:16;1.70;;;0.60;;
84644;SDS011;74874;48.072;11.688;2023-12-20T09:07:41;2.33;;;0.60;;
84644;SDS011;74874;48.072;11.688;2023-12-20T09:10:06;2.10;;;0.70;;
84644;SDS011;74874;48.072;11.688;2023-12-20T09:12:32;2.13;;;0.90;;
84644;SDS011;74874;48.072;11.688;2023-12-20T09:14:57;5.72;;;1.13;;
84644;SDS011;74874;48.072;11.688;2023-12-20T09:17:23;3.67;;;0.80;;
84644;SDS011;74874;48.072;11.688;2023-12-20T09:19:48;1.67;;;0.65;;
84644;SDS011;74874;48.072;11.688;2023-12-20T09:22:13;3.25;;;0.88;;
84644;SDS011;74874;48.072;11.688;2023-12-20T09:24:39;3.10;;;1.25;;
84644;SDS011;74874;48.072;11.688;2023-12-20T09:27:07;2.17;;;0.80;;
84644;SDS011;74874;48.072;11.688;2023-12-20T09:29:32;1.80;;;0.70;;
84644;SDS011;74874;48.072;11.688;2023-12-20T09:31:58;1.58;;;0.77;;
84644;SDS011;74874;48.072;11.688;2023-12-20T09:34:23;1.55;;;0.60;;
84644;SDS011;74874;48.072;11.688;2023-12-20T09:36:50;2.20;;;0.60;;
84644;SDS011;74874;48.072;11.688;2023-12-20T09:39:16;2.00;;;0.80;;
84644;SDS011;74874;48.072;11.688;2023-12-20T09:42:00;1.92;;;0.60;;
84644;SDS011;74874;48.072;11.688;2023-12-20T09:44:26;1.80;;;0.70;;
84644;SDS011;74874;48.072;11.688;2023-12-20T09:46:51;1.35;;;0.47;;
84644;SDS011;74874;48.072;11.688;2023-12-20T09:49:18;1.40;;;0.60;;
84644;SDS011;74874;48.072;11.688;2023-12-20T09:51:45;1.30;;;0.50;;
84644;SDS011;74874;48.072;11.688;2023-12-20T09:54:11;2.85;;;0.63;;
84644;SDS011;74874;48.072;11.688;2023-12-20T09:56:41;1.50;;;0.50;;
84644;SDS011;74874;48.072;11.688;2023-12-20T09:59:06;1.48;;;0.57;;
84644;SDS011;74874;48.072;11.688;2023-12-20T10:01:32;1.27;;;0.60;;
84644;SDS011;74874;48.072;11.688;2023-12-20T10:03:59;0.82;;;0.40;;
84644;SDS011;74874;48.072;11.688;2023-12-20T10:06:25;1.30;;;0.43;;
84644;SDS011;74874;48.072;11.688;2023-12-20T10:08:50;1.50;;;0.57;;
84644;SDS011;74874;48.072;11.688;2023-12-20T10:11:16;1.40;;;0.40;;
84644;SDS011;74874;48.072;11.688;2023-12-20T10:13:42;1.73;;;0.68;;
84644;SDS011;74874;48.072;11.688;2023-12-20T10:16:07;1.85;;;0.57;;
84644;SDS011;74874;48.072;11.688;2023-12-20T10:18:33;1.52;;;0.63;;
84644;SDS011;74874;48.072;11.688;2023-12-20T10:20:58;2.10;;;0.82;;
84644;SDS011;74874;48.072;11.688;2023-12-20T10:23:24;3.67;;;0.88;;
84644;SDS011;74874;48.072;11.688;2023-12-20T10:25:58;1.63;;;0.68;;
84644;SDS011;74874;48.072;11.688;2023-12-20T10:28:24;1.58;;;0.70;;
84644;SDS011;74874;48.072;11.688;2023-12-20T10:30:52;2.70;;;0.80;;
84644;SDS011;74874;48.072;11.688;2023-12-20T10:33:24;1.30;;;0.70;;
84644;SDS011;74874;48.072;11.688;2023-12-20T10:35:53;3.83;;;1.05;;
84644;SDS011;74874;48.072;11.688;2023-12-20T10:38:19;1.90;;;0.70;;
84644;SDS011;74874;48.072;11.688;2023-12-20T10:40:45;2.33;;;0.85;;
84644;SDS011;74874;48.072;11.688;2023-12-20T10:43:11;1.73;;;0.75;;
84644;SDS011;74874;48.072;11.688;2023-12-20T10:45:37;2.13;;;0.77;;
84644;SDS011;74874;48.072;11.688;2023-12-20T10:48:03;1.75;;;0.63;;
84644;SDS011;74874;48.072;11.688;2023-12-20T10:50:29;1.33;;;0.60;;
84644;SDS011;74874;48.072;11.688;2023-12-20T10:52:56;1.95;;;0.85;;
84644;SDS011;74874;48.072;11.688;2023-12-20T10:55:22;1.90;;;0.82;;
84644;SDS011;74874;48.072;11.688;2023-12-20T10:57:49;1.63;;;0.60;;
84644;SDS011;74874;48.072;11.688;2023-12-20T11:00:18;5.60;;;1.42;;
84644;SDS011;74874;48.072;11.688;2023-12-20T11:02:43;1.67;;;0.65;;
84644;SDS011;74874;48.072;11.688;2023-12-20T11:08:03;6.40;;;0.98;;
84644;SDS011;74874;48.072;11.688;2023-12-20T11:10:33;1.83;;;0.70;;
84644;SDS011;74874;48.072;11.688;2023-12-20T11:13:16;1.70;;;0.70;;
84644;SDS011;74874;48.072;11.688;2023-12-20T11:15:44;1.90;;;0.52;;
84644;SDS011;74874;48.072;11.688;2023-12-20T11:18:10;1.50;;;0.70;;
84644;SDS011;74874;48.072;11.688;2023-12-20T11:20:37;2.10;;;0.73;;
84644;SDS011;74874;48.072;11.688;2023-12-20T11:23:03;2.28;;;0.80;;
84644;SDS011;74874;48.072;11.688;2023-12-20T11:25:28;1.52;;;0.60;;
84644;SDS011;74874;48.072;11.688;2023-12-20T11:28:06;2.83;;;1.00;;
84644;SDS011;74874;48.072;11.688;2023-12-20T11:30:45;2.00;;;1.10;;
84644;SDS011;74874;48.072;11.688;2023-12-20T11:33:21;2.22;;;1.00;;
84644;SDS011;74874;48.072;11.688;2023-12-20T11:35:47;2.25;;;1.00;;
84644;SDS011;74874;48.072;11.688;2023-12-20T11:38:13;1.65;;;0.82;;
84644;SDS011;74874;48.072;11.688;2023-12-20T11:40:40;3.22;;;1.65;;
84644;SDS011;74874;48.072;11.688;2023-12-20T11:43:06;2.53;;;1.10;;
84644;SDS011;74874;48.072;11.688;2023-12-20T11:45:32;1.92;;;1.00;;
84644;SDS011;74874;48.072;11.688;2023-12-20T11:47:59;2.40;;;1.17;;
84644;SDS011;74874;48.072;11.688;2023-12-20T11:50:25;2.33;;;1.10;;
84644;SDS011;74874;48.072;11.688;2023-12-20T11:52:51;1.95;;;1.00;;
84644;SDS011;74874;48.072;11.688;2023-12-20T11:55:17;2.42;;;1.05;;
84644;SDS011;74874;48.072;11.688;2023-12-20T11:57:43;2.42;;;1.30;;
84644;SDS011;74874;48.072;11.688;2023-12-20T12:00:09;5.65;;;1.27;;
84644;SDS011;74874;48.072;11.688;2023-12-20T12:02:35;2.28;;;1.10;;
84644;SDS011;74874;48.072;11.688;2023-12-20T12:05:00;2.78;;;1.48;;
84644;SDS011;74874;48.072;11.688;2023-12-20T12:07:26;1.98;;;0.98;;
84644;SDS011;74874;48.072;11.688;2023-12-20T12:09:51;3.45;;;1.00;;
84644;SDS011;74874;48.072;11.688;2023-12-20T12:12:17;2.30;;;1.25;;
84644;SDS011;74874;48.072;11.688;2023-12-20T12:14:44;1.85;;;0.80;;
84644;SDS011;74874;48.072;11.688;2023-12-20T12:17:10;2.75;;;1.08;;
84644;SDS011;74874;48.072;11.688;2023-12-20T12:19:38;2.03;;;0.95;;
84644;SDS011;74874;48.072;11.688;2023-12-20T12:22:04;3.33;;;1.17;;
84644;SDS011;74874;48.072;11.688;2023-12-20T12:24:35;2.80;;;1.05;;
84644;SDS011;74874;48.072;11.688;2023-12-20T12:27:00;3.03;;;1.20;;
84644;SDS011;74874;48.072;11.688;2023-12-20T12:29:26;1.80;;;0.88;;
84644;SDS011;74874;48.072;11.688;2023-12-20T12:31:52;2.00;;;0.68;;
84644;SDS011;74874;48.072;11.688;2023-12-20T12:34:17;3.03;;;0.88;;
84644;SDS011;74874;48.072;11.688;2023-12-20T12:36:43;2.20;;;0.80;;
84644;SDS011;74874;48.072;11.688;2023-12-20T12:39:12;2.38;;;1.10;;
84644;SDS011;74874;48.072;11.688;2023-12-20T12:41:37;1.92;;;0.85;;
84644;SDS011;74874;48.072;11.688;2023-12-20T12:44:02;2.42;;;1.02;;
84644;SDS011;74874;48.072;11.688;2023-12-20T12:46:28;2.28;;;1.00;;
84644;SDS011;74874;48.072;11.688;2023-12-20T12:48:54;2.25;;;1.13;;
84644;SDS011;74874;48.072;11.688;2023-12-20T12:51:19;2.40;;;0.90;;
84644;SDS011;74874;48.072;11.688;2023-12-20T12:53:44;3.03;;;1.65;;
84644;SDS011;74874;48.072;11.688;2023-12-20T12:56:10;2.75;;;1.20;;
84644;SDS011;74874;48.072;11.688;2023-12-20T12:58:37;2.17;;;1.20;;
84644;SDS011;74874;48.072;11.688;2023-12-20T13:01:03;2.78;;;1.40;;
84644;SDS011;74874;48.072;11.688;2023-12-20T13:03:28;3.55;;;1.00;;
84644;SDS011;74874;48.072;11.688;2023-12-20T13:05:53;2.42;;;1.10;;
84644;SDS011;74874;48.072;11.688;2023-12-20T13:08:19;3.78;;;1.40;;
84644;SDS011;74874;48.072;11.688;2023-12-20T13:10:44;2.50;;;1.13;;
84644;SDS011;74874;48.072;11.688;2023-12-20T13:13:09;2.40;;;1.40;;
84644;SDS011;74874;48.072;11.688;2023-12-20T13:15:35;2.45;;;1.30;;
84644;SDS011;74874;48.072;11.688;2023-12-20T13:18:00;2.40;;;1.20;;
84644;SDS011;74874;48.072;11.688;2023-12-20T13:20:25;3.50;;;1.75;;
84644;SDS011;74874;48.072;11.688;2023-12-20T13:22:51;4.68;;;1.88;;
84644;SDS011;74874;48.072;11.688;2023-12-20T13:25:16;2.60;;;1.35;;
84644;SDS011;74874;48.072;11.688;2023-12-20T13:27:41;2.47;;;1.23;;
84644;SDS011;74874;48.072;11.688;2023-12-20T13:30:07;2.67;;;1.45;;
84644;SDS011;74874;48.072;11.688;2023-12-20T13:32:33;2.92;;;1.90;;
84644;SDS011;74874;48.072;11.688;2023-12-20T13:34:58;2.92;;;1.55;;
84644;SDS011;74874;48.072;11.688;2023-12-20T13:37:23;2.70;;;1.33;;
84644;SDS011;74874;48.072;11.688;2023-12-20T13:39:49;5.50;;;2.58;;
84644;SDS011;74874;48.072;11.688;2023-12-20T13:42:14;4.07;;;1.80;;
84644;SDS011;74874;48.072;11.688;2023-12-20T13:44:39;3.47;;;2.15;;
84644;SDS011;74874;48.072;11.688;2023-12-20T13:47:05;5.00;;;2.78;;
84644;SDS011;74874;48.072;11.688;2023-12-20T13:49:31;3.10;;;1.80;;
84644;SDS011;74874;48.072;11.688;2023-12-20T13:51:56;4.22;;;2.00;;
84644;SDS011;74874;48.072;11.688;2023-12-20T13:54:22;5.47;;;2.63;;
84644;SDS011;74874;48.072;11.688;2023-12-20T13:56:48;3.75;;;2.10;;
84644;SDS011;74874;48.072;11.688;2023-12-20T13:59:13;6.97;;;2.60;;
84644;SDS011;74874;48.072;11.688;2023-12-20T14:01:40;13.88;;;2.67;;
84644;SDS011;74874;48.072;11.688;2023-12-20T14:04:05;6.63;;;2.85;;
84644;SDS011;74874;48.072;11.688;2023-12-20T14:06:31;6.35;;;3.10;;
84644;SDS011;74874;48.072;11.688;2023-12-20T14:08:57;11.48;;;6.32;;
84644;SDS011;74874;48.072;11.688;2023-12-20T14:11:25;5.30;;;2.90;;
84644;SDS011;74874;48.072;11.688;2023-12-20T14:13:50;6.63;;;2.83;;
84644;SDS011;74874;48.072;11.688;2023-12-20T14:16:16;8.13;;;3.80;;
84644;SDS011;74874;48.072;11.688;2023-12-20T14:18:41;11.65;;;4.80;;
84644;SDS011;74874;48.072;11.688;2023-12-20T14:21:07;8.77;;;3.42;;
84644;SDS011;74874;48.072;11.688;2023-12-20T14:23:32;6.32;;;3.13;;
84644;SDS011;74874;48.072;11.688;2023-12-20T14:25:58;9.90;;;3.17;;
84644;SDS011;74874;48.072;11.688;2023-12-20T14:28:24;9.52;;;2.97;;
84644;SDS011;74874;48.072;11.688;2023-12-20T14:30:50;5.97;;;3.15;;
84644;SDS011;74874;48.072;11.688;2023-12-20T14:33:15;7.93;;;3.42;;
84644;SDS011;74874;48.072;11.688;2023-12-20T14:35:41;6.78;;;2.90;;